Time;durP1;ratioP1;P1;durP2;ratioP2;P2;SDS_P1;SDS_P2;PMS_P1;PMS_P2;Temp;Humidity;BMP_temperature;BMP_pressure;BME280_temperature;BME280_humidity;BME280_pressure;Samples;Min_cycle;Max_cycle;Signal;HPM_P1;HPM_P2
2023/03/12 00:00:50;;;;;;;3.80;3.50;;;1.90;99.90;;;;;;5046309;28;20628;-50
2023/03/12 00:03:17;;;;;;;8.23;3.60;;;1.90;99.90;;;;;;5035257;28;20218;-48
2023/03/12 00:05:45;;;;;;;5.03;3.30;;;1.90;99.90;;;;;;5046571;28;20214;-46
2023/03/12 00:08:12;;;;;;;4.27;3.87;;;1.90;99.90;;;;;;5047390;28;20214;-52
2023/03/12 00:10:40;;;;;;;4.80;3.97;;;1.90;99.90;;;;;;5042958;28;20210;-46
2023/03/12 00:13:08;;;;;;;8.20;3.77;;;1.90;99.90;;;;;;5029123;28;20225;-52
2023/03/12 00:15:36;;;;;;;6.53;3.30;;;1.90;99.90;;;;;;5042000;28;20221;-50
2023/03/12 00:18:04;;;;;;;4.93;3.37;;;1.90;99.90;;;;;;5023164;28;20218;-52
2023/03/12 00:20:31;;;;;;;4.13;3.67;;;1.90;99.90;;;;;;5044369;28;20207;-46
2023/03/12 00:22:59;;;;;;;5.63;3.97;;;1.80;99.90;;;;;;5041865;28;20222;-49
2023/03/12 00:25:26;;;;;;;5.43;3.77;;;1.80;99.90;;;;;;5039040;28;20203;-48
2023/03/12 00:28:11;;;;;;;6.90;4.00;;;1.80;99.90;;;;;;5043887;28;20226;-53
2023/03/12 00:30:39;;;;;;;4.60;3.77;;;1.80;99.90;;;;;;5047932;28;20191;-47
2023/03/12 00:33:07;;;;;;;7.77;4.30;;;1.80;99.90;;;;;;5039558;28;20214;-52
2023/03/12 00:35:33;;;;;;;5.33;3.50;;;1.80;99.90;;;;;;5051546;28;20862;-46
2023/03/12 00:38:01;;;;;;;7.43;4.37;;;1.80;99.90;;;;;;5046189;28;20210;-47
2023/03/12 00:40:28;;;;;;;4.87;4.07;;;1.80;99.90;;;;;;5040674;28;20225;-46
2023/03/12 00:42:54;;;;;;;4.30;3.90;;;1.80;99.90;;;;;;5045648;28;20203;-47
2023/03/12 00:45:22;;;;;;;4.63;3.97;;;1.70;99.90;;;;;;5043944;28;20559;-54
2023/03/12 00:47:48;;;;;;;7.20;4.10;;;1.70;99.90;;;;;;5035121;28;20222;-51
2023/03/12 00:50:16;;;;;;;4.10;3.80;;;1.70;99.90;;;;;;5047470;28;20203;-54
2023/03/12 00:52:44;;;;;;;6.73;4.77;;;1.70;99.90;;;;;;5044607;28;20208;-50
2023/03/12 00:55:11;;;;;;;4.80;3.83;;;1.70;99.90;;;;;;5043360;28;20231;-55
2023/03/12 00:57:38;;;;;;;4.47;4.07;;;1.70;99.90;;;;;;5040178;28;20307;-46
2023/03/12 01:00:08;;;;;;;5.00;4.50;;;1.70;99.90;;;;;;5047398;28;20646;-50
2023/03/12 01:02:36;;;;;;;7.13;5.20;;;1.70;99.90;;;;;;5032167;28;20461;-48
2023/03/12 01:05:07;;;;;;;6.93;4.93;;;1.70;99.90;;;;;;5059395;28;20683;-47
2023/03/12 01:07:36;;;;;;;6.47;4.50;;;1.70;99.90;;;;;;5045066;28;20249;-48
2023/03/12 01:10:03;;;;;;;7.80;4.93;;;1.60;99.90;;;;;;5044324;28;20606;-51
2023/03/12 01:12:30;;;;;;;5.67;5.07;;;1.60;99.90;;;;;;5041558;28;20196;-51
2023/03/12 01:14:57;;;;;;;8.27;5.47;;;1.60;99.90;;;;;;5046500;28;20285;-52
2023/03/12 01:17:24;;;;;;;6.83;5.50;;;1.60;99.90;;;;;;5029691;28;20241;-52
2023/03/12 01:19:51;;;;;;;7.97;5.70;;;1.60;99.90;;;;;;5057028;28;20714;-49
2023/03/12 01:22:18;;;;;;;7.83;5.43;;;1.60;99.90;;;;;;5041495;28;20294;-55
2023/03/12 01:24:47;;;;;;;8.43;6.10;;;1.60;99.90;;;;;;5043990;28;20215;-49
2023/03/12 01:27:13;;;;;;;7.30;5.90;;;1.60;99.90;;;;;;5043718;28;20615;-53
2023/03/12 01:29:40;;;;;;;14.43;5.93;;;1.60;99.90;;;;;;5044230;28;20206;-51
2023/03/12 01:32:08;;;;;;;6.93;5.80;;;1.60;99.90;;;;;;5044928;28;20206;-52
2023/03/12 01:34:35;;;;;;;9.47;6.47;;;1.60;99.90;;;;;;5031204;28;20497;-48
2023/03/12 01:37:02;;;;;;;9.50;6.67;;;1.60;99.90;;;;;;5053030;28;20289;-49
2023/03/12 01:39:29;;;;;;;9.50;7.20;;;1.60;99.90;;;;;;5039819;28;20201;-49
2023/03/12 01:41:57;;;;;;;8.33;6.33;;;1.50;99.90;;;;;;5043457;28;20671;-46
2023/03/12 01:44:24;;;;;;;10.60;6.37;;;1.60;99.90;;;;;;5036106;28;20314;-48
2023/03/12 01:46:51;;;;;;;7.53;6.40;;;1.60;99.90;;;;;;5043667;28;20221;-49
2023/03/12 01:49:26;;;;;;;14.90;6.77;;;1.50;99.90;;;;;;5035052;28;20203;-50
2023/03/12 01:51:58;;;;;;;8.90;6.87;;;1.50;99.90;;;;;;5051622;28;20681;-46
2023/03/12 01:54:33;;;;;;;11.03;6.87;;;1.50;99.90;;;;;;5038984;28;20249;-48
2023/03/12 01:57:04;;;;;;;11.40;7.33;;;1.50;99.90;;;;;;5058224;28;20198;-49
2023/03/12 01:59:37;;;;;;;9.77;7.17;;;1.50;99.90;;;;;;5053388;28;20983;-48
2023/03/12 02:02:06;;;;;;;7.13;6.20;;;1.50;99.90;;;;;;5046599;28;20203;-50
2023/03/12 02:04:34;;;;;;;8.10;6.37;;;1.50;99.90;;;;;;5031185;28;20527;-49
2023/03/12 02:07:05;;;;;;;13.00;7.00;;;1.60;99.90;;;;;;5051402;28;20191;-50
2023/03/12 02:09:34;;;;;;;8.53;7.13;;;1.60;99.90;;;;;;5042134;28;20264;-49
2023/03/12 02:12:03;;;;;;;11.37;7.27;;;1.60;99.90;;;;;;5043131;28;20328;-49
2023/03/12 02:14:30;;;;;;;9.33;7.30;;;1.60;99.90;;;;;;5038478;28;20897;-48
2023/03/12 02:16:57;;;;;;;10.87;6.93;;;1.60;99.90;;;;;;5041105;28;20215;-49
2023/03/12 02:19:32;;;;;;;9.53;6.67;;;1.60;99.90;;;;;;5029011;28;20222;-50
2023/03/12 02:21:59;;;;;;;15.90;6.67;;;1.60;99.90;;;;;;5053066;28;20277;-50
2023/03/12 02:24:33;;;;;;;12.67;7.67;;;1.50;99.90;;;;;;5041748;28;20213;-48
2023/03/12 02:27:02;;;;;;;10.47;6.90;;;1.50;99.90;;;;;;5043974;28;20207;-49
2023/03/12 02:29:31;;;;;;;9.73;6.93;;;1.50;99.90;;;;;;5045025;28;20285;-47
2023/03/12 02:32:01;;;;;;;12.37;7.23;;;1.50;99.90;;;;;;5043632;28;20206;-48
2023/03/12 02:34:28;;;;;;;6.87;5.47;;;1.50;99.90;;;;;;5041266;28;21005;-53
2023/03/12 02:36:55;;;;;;;7.33;6.27;;;1.50;99.90;;;;;;5043170;28;20294;-47
2023/03/12 02:39:22;;;;;;;8.87;6.53;;;1.40;99.90;;;;;;5046285;28;20195;-50
2023/03/12 02:41:52;;;;;;;8.67;6.70;;;1.40;99.90;;;;;;5042494;28;20198;-46
2023/03/12 02:44:22;;;;;;;9.37;7.33;;;1.40;99.90;;;;;;5039073;28;20314;-53
2023/03/12 02:46:53;;;;;;;9.20;6.90;;;1.40;99.90;;;;;;5041605;28;20205;-46
2023/03/12 02:49:22;;;;;;;10.67;7.70;;;1.40;99.90;;;;;;5047376;28;20297;-50
2023/03/12 02:51:49;;;;;;;9.07;7.33;;;1.40;99.90;;;;;;5038876;28;20214;-48
2023/03/12 02:54:18;;;;;;;11.83;7.57;;;1.30;99.90;;;;;;5050051;28;20276;-53
2023/03/12 02:56:45;;;;;;;17.10;9.03;;;1.30;99.90;;;;;;5041327;28;20206;-50
2023/03/12 02:59:13;;;;;;;18.40;9.00;;;1.30;99.90;;;;;;5042072;28;20202;-52
2023/03/12 03:01:44;;;;;;;11.03;8.50;;;1.30;99.90;;;;;;5037767;28;20214;-47
2023/03/12 03:04:12;;;;;;;15.70;9.20;;;1.30;99.90;;;;;;5046501;28;20762;-49
2023/03/12 03:06:41;;;;;;;13.43;8.60;;;1.30;99.90;;;;;;5033689;28;20206;-48
2023/03/12 03:09:11;;;;;;;13.77;8.23;;;1.30;99.90;;;;;;5047453;28;20229;-54
2023/03/12 03:11:37;;;;;;;12.53;8.67;;;1.30;99.90;;;;;;5041085;28;20202;-47
2023/03/12 03:14:06;;;;;;;10.57;7.87;;;1.30;99.90;;;;;;5041478;28;20233;-51
2023/03/12 03:16:34;;;;;;;12.97;7.73;;;1.20;99.90;;;;;;5040159;28;20302;-45
2023/03/12 03:19:03;;;;;;;13.30;8.70;;;1.20;99.90;;;;;;5041971;28;20215;-48
2023/03/12 03:21:30;;;;;;;13.13;8.77;;;1.20;99.90;;;;;;5030425;28;20245;-46
2023/03/12 03:23:57;;;;;;;16.90;8.23;;;1.20;99.90;;;;;;5047084;28;20684;-48
2023/03/12 03:26:25;;;;;;;12.77;8.27;;;1.20;99.90;;;;;;5041077;28;20268;-53
2023/03/12 03:28:52;;;;;;;10.57;8.50;;;1.10;99.90;;;;;;5041851;28;20202;-49
2023/03/12 03:31:20;;;;;;;12.53;8.70;;;1.10;99.90;;;;;;5039082;28;20203;-52
2023/03/12 03:33:47;;;;;;;12.47;7.97;;;1.20;99.90;;;;;;5041526;28;20304;-47
2023/03/12 03:36:15;;;;;;;15.87;8.73;;;1.10;99.90;;;;;;5038584;28;20211;-51
2023/03/12 03:38:50;;;;;;;12.50;9.03;;;1.10;99.90;;;;;;5048169;28;20201;-46
2023/03/12 03:41:20;;;;;;;12.57;8.67;;;1.10;99.90;;;;;;5040721;28;20580;-54
2023/03/12 03:43:47;;;;;;;16.00;9.53;;;1.10;99.90;;;;;;5046186;28;20240;-49
2023/03/12 03:46:17;;;;;;;14.03;9.70;;;1.10;99.90;;;;;;5039340;28;20222;-53
2023/03/12 03:48:50;;;;;;;19.77;10.13;;;1.10;99.90;;;;;;5042227;28;20206;-45
2023/03/12 03:51:19;;;;;;;17.47;10.70;;;1.20;99.90;;;;;;5034216;28;20221;-52
2023/03/12 03:53:49;;;;;;;13.97;9.57;;;1.20;99.90;;;;;;5051501;28;20569;-45
2023/03/12 03:56:17;;;;;;;13.23;9.50;;;1.10;99.90;;;;;;5039193;28;20237;-52
2023/03/12 03:58:49;;;;;;;13.23;9.53;;;1.10;99.90;;;;;;5041444;28;20214;-45
2023/03/12 04:01:18;;;;;;;16.70;9.67;;;1.10;99.90;;;;;;5038694;28;20211;-53
2023/03/12 04:03:46;;;;;;;17.40;9.37;;;1.10;99.90;;;;;;5039689;28;20251;-49
2023/03/12 04:06:13;;;;;;;13.90;9.20;;;1.20;99.90;;;;;;5048294;28;20639;-51
2023/03/12 04:08:42;;;;;;;11.10;8.90;;;1.20;99.90;;;;;;5033634;28;20567;-47
2023/03/12 04:11:15;;;;;;;11.73;9.07;;;1.20;99.90;;;;;;5056334;28;20519;-51
2023/03/12 04:13:44;;;;;;;16.30;9.53;;;1.20;99.90;;;;;;5042819;28;20301;-45
2023/03/12 04:16:13;;;;;;;12.63;8.53;;;1.20;99.90;;;;;;5043901;28;20316;-52
2023/03/12 04:18:41;;;;;;;20.50;9.83;;;1.10;99.90;;;;;;5043646;28;20924;-53
2023/03/12 04:21:10;;;;;;;13.67;9.33;;;1.10;99.90;;;;;;5046412;28;20290;-53
2023/03/12 04:23:40;;;;;;;11.17;8.73;;;1.10;99.90;;;;;;5039647;28;20873;-45
2023/03/12 04:26:09;;;;;;;15.53;8.70;;;1.10;99.90;;;;;;5051320;28;20241;-52
2023/03/12 04:28:37;;;;;;;11.33;8.47;;;1.00;99.90;;;;;;5043539;28;20203;-45
2023/03/12 04:31:07;;;;;;;13.30;8.90;;;0.90;99.90;;;;;;5044767;28;20708;-51
2023/03/12 04:33:40;;;;;;;12.70;8.10;;;0.90;99.90;;;;;;5043763;28;20226;-46
2023/03/12 04:36:08;;;;;;;13.80;8.90;;;0.90;99.90;;;;;;5041823;28;20698;-51
2023/03/12 04:38:39;;;;;;;10.13;8.07;;;0.90;99.90;;;;;;5041815;28;21043;-47
2023/03/12 04:41:11;;;;;;;14.00;8.73;;;0.80;99.90;;;;;;5037338;28;20335;-50
2023/03/12 04:43:42;;;;;;;13.50;7.87;;;0.70;99.90;;;;;;5049797;28;20235;-46
2023/03/12 04:46:10;;;;;;;16.13;8.17;;;0.70;99.90;;;;;;5043671;28;20302;-53
2023/03/12 04:48:39;;;;;;;10.43;7.60;;;0.70;99.90;;;;;;5061840;28;20258;-45
2023/03/12 04:51:06;;;;;;;9.90;8.30;;;0.60;99.90;;;;;;5062089;28;20257;-51
2023/03/12 04:53:33;;;;;;;14.80;8.80;;;0.60;99.90;;;;;;5042743;28;20210;-48
2023/03/12 04:56:02;;;;;;;13.80;8.60;;;0.60;99.90;;;;;;5048548;28;20595;-48
2023/03/12 04:58:31;;;;;;;11.07;8.23;;;0.50;99.90;;;;;;5042572;28;20291;-45
2023/03/12 05:00:58;;;;;;;11.63;8.10;;;0.60;99.90;;;;;;5050648;28;20545;-47
2023/03/12 05:03:25;;;;;;;12.00;8.60;;;0.60;99.90;;;;;;5041006;28;20242;-47
2023/03/12 05:05:52;;;;;;;13.60;8.30;;;0.50;99.90;;;;;;5043761;28;20203;-52
2023/03/12 05:08:19;;;;;;;13.60;7.27;;;0.50;99.90;;;;;;5038612;28;20208;-52
2023/03/12 05:10:46;;;;;;;10.57;8.40;;;0.50;99.90;;;;;;5043468;28;20209;-47
2023/03/12 05:13:17;;;;;;;10.67;8.07;;;0.50;99.90;;;;;;5045084;28;20661;-54
2023/03/12 05:15:49;;;;;;;11.53;7.53;;;0.50;99.90;;;;;;5046517;28;20218;-46
2023/03/12 05:18:19;;;;;;;12.10;8.60;;;0.50;99.90;;;;;;5040441;28;20215;-54
2023/03/12 05:21:07;;;;;;;9.60;7.67;;;0.50;99.90;;;;;;5046331;28;20218;-45
2023/03/12 05:23:35;;;;;;;9.47;7.53;;;0.50;99.90;;;;;;5049418;28;20229;-48
2023/03/12 05:26:02;;;;;;;11.57;8.03;;;0.50;99.90;;;;;;5047007;28;20567;-46
2023/03/12 05:28:30;;;;;;;10.63;7.47;;;0.50;99.90;;;;;;5031897;28;20928;-45
2023/03/12 05:31:01;;;;;;;7.97;7.00;;;0.60;99.90;;;;;;5051488;28;20660;-46
2023/03/12 05:33:29;;;;;;;11.97;7.40;;;0.60;99.90;;;;;;5039263;28;21018;-46
2023/03/12 05:35:58;;;;;;;11.83;7.23;;;0.60;99.90;;;;;;5043374;28;20227;-52
2023/03/12 05:38:25;;;;;;;12.63;7.03;;;0.60;99.90;;;;;;5036818;28;20859;-50
2023/03/12 05:40:53;;;;;;;10.67;7.53;;;0.60;99.90;;;;;;5045053;28;20748;-50
2023/03/12 05:43:21;;;;;;;12.47;7.20;;;0.50;99.90;;;;;;5030951;28;20231;-52
2023/03/12 05:45:48;;;;;;;10.17;7.47;;;0.60;99.90;;;;;;5053173;28;20286;-48
2023/03/12 05:48:39;;;;;;;9.53;7.50;;;0.60;99.90;;;;;;5056768;28;20914;-50
2023/03/12 05:51:07;;;;;;;11.23;7.97;;;0.50;99.90;;;;;;5062202;28;20722;-52
2023/03/12 05:53:34;;;;;;;11.13;7.03;;;0.60;99.90;;;;;;5049791;28;20207;-50
2023/03/12 05:56:03;;;;;;;7.77;6.50;;;0.60;99.90;;;;;;5047957;28;20239;-47
2023/03/12 05:58:30;;;;;;;11.03;6.80;;;0.60;99.90;;;;;;5027079;28;20332;-47
2023/03/12 06:00:57;;;;;;;7.93;6.50;;;0.60;99.90;;;;;;5050648;28;20222;-49
2023/03/12 06:03:24;;;;;;;9.23;7.50;;;0.60;99.90;;;;;;5044926;28;20296;-53
2023/03/12 06:05:55;;;;;;;9.67;6.63;;;0.60;99.90;;;;;;5043308;28;20310;-46
2023/03/12 06:08:23;;;;;;;11.00;6.90;;;0.60;99.90;;;;;;5039147;28;20741;-53
2023/03/12 06:10:52;;;;;;;11.37;6.97;;;0.70;99.90;;;;;;5041475;28;20703;-46
2023/03/12 06:13:18;;;;;;;10.93;6.93;;;0.70;99.90;;;;;;5030162;28;20252;-54
2023/03/12 06:15:45;;;;;;;10.27;6.47;;;0.70;99.90;;;;;;5045549;28;20318;-46
2023/03/12 06:18:12;;;;;;;8.80;7.23;;;0.70;99.90;;;;;;5047689;28;20900;-47
2023/03/12 06:20:39;;;;;;;10.57;7.03;;;0.70;99.90;;;;;;5047189;28;20214;-50
2023/03/12 06:23:08;;;;;;;8.87;7.33;;;0.70;99.90;;;;;;5042553;28;20194;-48
2023/03/12 06:25:34;;;;;;;13.27;7.37;;;0.80;99.90;;;;;;5051452;28;20544;-47
2023/03/12 06:28:02;;;;;;;8.20;6.90;;;0.80;99.90;;;;;;5043860;28;20216;-54
2023/03/12 06:30:28;;;;;;;11.67;8.10;;;0.80;99.90;;;;;;5029973;28;20680;-49
2023/03/12 06:32:55;;;;;;;10.17;6.57;;;0.90;99.90;;;;;;5045623;28;20233;-50
2023/03/12 06:35:22;;;;;;;7.90;7.00;;;0.80;99.90;;;;;;5039580;28;20222;-48
2023/03/12 06:37:49;;;;;;;14.00;7.40;;;0.80;99.90;;;;;;5045046;28;20209;-52
2023/03/12 06:40:17;;;;;;;8.30;7.40;;;0.90;99.90;;;;;;5042845;28;20199;-48
2023/03/12 06:42:44;;;;;;;11.40;7.33;;;0.90;99.90;;;;;;5050132;28;20207;-49
2023/03/12 06:45:11;;;;;;;10.40;7.70;;;0.90;99.90;;;;;;5033243;28;20237;-47
2023/03/12 06:47:38;;;;;;;12.13;8.00;;;0.80;99.90;;;;;;5060040;28;20201;-46
2023/03/12 06:50:05;;;;;;;14.10;8.47;;;0.90;99.90;;;;;;5051842;28;20240;-47
2023/03/12 06:52:32;;;;;;;13.93;9.23;;;0.90;99.90;;;;;;5049434;28;20597;-46
2023/03/12 06:54:59;;;;;;;11.87;8.37;;;0.90;99.90;;;;;;5044689;28;20294;-54
2023/03/12 06:57:27;;;;;;;10.17;8.63;;;0.90;99.90;;;;;;5046704;28;20225;-46
2023/03/12 06:59:54;;;;;;;13.97;8.73;;;0.90;99.90;;;;;;5044624;28;20217;-53
2023/03/12 07:02:42;;;;;;;14.47;8.40;;;1.00;99.90;;;;;;5048083;28;20752;-50
2023/03/12 07:05:10;;;;;;;14.10;9.03;;;1.10;99.90;;;;;;5051918;28;20216;-47
2023/03/12 07:07:37;;;;;;;13.77;9.27;;;1.20;99.90;;;;;;5044557;28;20575;-51
2023/03/12 07:10:05;;;;;;;12.33;9.07;;;1.20;99.90;;;;;;5035328;28;20202;-54
2023/03/12 07:12:33;;;;;;;13.60;9.23;;;1.20;99.90;;;;;;5047022;28;20240;-46
2023/03/12 07:15:00;;;;;;;13.60;8.83;;;1.20;99.90;;;;;;5045764;28;20234;-53
2023/03/12 07:17:27;;;;;;;14.43;9.60;;;1.20;99.90;;;;;;5037024;28;20576;-47
2023/03/12 07:19:54;;;;;;;11.07;8.70;;;1.30;99.90;;;;;;5053682;28;20199;-52
2023/03/12 07:22:20;;;;;;;17.20;9.20;;;1.30;99.90;;;;;;5048738;28;20199;-51
2023/03/12 07:24:47;;;;;;;16.97;9.70;;;1.30;99.90;;;;;;5055694;28;20713;-52
2023/03/12 07:27:14;;;;;;;13.00;8.83;;;1.30;99.90;;;;;;5033832;28;20253;-46
2023/03/12 07:29:42;;;;;;;12.13;9.10;;;1.30;99.90;;;;;;5046654;28;20233;-48
2023/03/12 07:32:09;;;;;;;19.17;9.43;;;1.30;99.90;;;;;;5030527;28;20218;-53
2023/03/12 07:34:36;;;;;;;12.77;9.03;;;1.30;99.90;;;;;;5043472;28;20226;-47
2023/03/12 07:37:03;;;;;;;15.20;9.63;;;1.40;99.90;;;;;;5047918;28;20223;-46
2023/03/12 07:39:30;;;;;;;14.63;8.97;;;1.40;99.90;;;;;;5041630;28;20205;-49
2023/03/12 07:41:57;;;;;;;12.17;9.27;;;1.50;99.90;;;;;;5043212;28;20243;-46
2023/03/12 07:44:25;;;;;;;13.83;8.90;;;1.50;99.90;;;;;;5045674;28;20261;-52
2023/03/12 07:46:53;;;;;;;13.27;8.83;;;1.60;99.90;;;;;;5054104;28;20570;-45
2023/03/12 07:49:19;;;;;;;11.87;8.20;;;1.60;99.90;;;;;;5034160;28;20248;-46
2023/03/12 07:51:46;;;;;;;10.67;8.50;;;1.60;99.90;;;;;;5054518;28;20558;-52
2023/03/12 07:54:13;;;;;;;11.27;8.20;;;1.60;99.90;;;;;;5041516;28;20218;-46
2023/03/12 07:56:40;;;;;;;11.53;8.37;;;1.70;99.90;;;;;;5053816;28;20276;-53
2023/03/12 07:59:07;;;;;;;12.30;8.87;;;1.70;99.90;;;;;;5053585;28;20198;-46
2023/03/12 08:01:33;;;;;;;9.33;7.33;;;1.80;99.90;;;;;;5053556;28;20248;-53
2023/03/12 08:04:02;;;;;;;13.57;8.03;;;1.80;99.90;;;;;;5033224;28;20221;-46
2023/03/12 08:06:29;;;;;;;10.03;7.33;;;1.90;99.90;;;;;;5046722;28;20203;-48
2023/03/12 08:08:59;;;;;;;11.30;7.63;;;1.90;99.90;;;;;;5052563;28;20203;-49
2023/03/12 08:11:25;;;;;;;12.67;7.57;;;1.90;99.90;;;;;;5045150;28;20223;-53
2023/03/12 08:13:53;;;;;;;9.57;7.23;;;2.00;99.90;;;;;;5049870;28;20230;-49
2023/03/12 08:16:20;;;;;;;9.60;7.10;;;2.00;99.90;;;;;;5051265;28;20275;-52
2023/03/12 08:18:47;;;;;;;10.17;7.30;;;2.10;99.90;;;;;;5037127;28;20207;-47
2023/03/12 08:21:15;;;;;;;7.97;6.87;;;2.20;99.90;;;;;;5055139;28;20186;-52
2023/03/12 08:23:42;;;;;;;8.40;6.77;;;2.30;99.90;;;;;;5054048;28;20246;-46
2023/03/12 08:26:09;;;;;;;8.53;6.37;;;2.40;99.90;;;;;;5045002;28;20211;-50
2023/03/12 08:28:36;;;;;;;8.83;6.60;;;2.40;99.90;;;;;;5040108;28;20221;-48
2023/03/12 08:31:03;;;;;;;10.50;5.70;;;2.50;99.90;;;;;;5045569;28;20253;-47
2023/03/12 08:33:30;;;;;;;6.77;5.23;;;2.50;99.90;;;;;;5052978;28;20217;-51
2023/03/12 08:35:57;;;;;;;9.17;5.37;;;2.60;99.90;;;;;;5040715;28;20216;-49
2023/03/12 08:38:25;;;;;;;10.60;6.23;;;2.70;99.90;;;;;;5045728;28;20217;-50
2023/03/12 08:40:56;;;;;;;7.00;5.47;;;2.80;99.90;;;;;;5048752;28;20191;-49
2023/03/12 08:43:24;;;;;;;7.10;5.10;;;2.80;99.90;;;;;;5057958;28;20306;-50
2023/03/12 08:45:54;;;;;;;6.90;4.80;;;2.90;99.90;;;;;;5032021;28;20210;-47
2023/03/12 08:48:21;;;;;;;6.97;5.33;;;2.90;99.90;;;;;;5055317;28;20187;-47
2023/03/12 08:50:48;;;;;;;5.50;4.13;;;2.90;99.90;;;;;;5037708;28;20622;-52
2023/03/12 08:53:15;;;;;;;5.23;3.53;;;3.10;99.90;;;;;;5049159;28;20210;-47
2023/03/12 08:55:44;;;;;;;7.83;3.63;;;3.10;99.90;;;;;;5044360;28;20203;-48
2023/03/12 08:58:11;;;;;;;5.80;4.10;;;3.10;99.90;;;;;;5052182;28;20216;-49
2023/03/12 09:00:38;;;;;;;5.33;3.80;;;3.20;99.90;;;;;;5040348;28;20663;-53
2023/03/12 09:03:04;;;;;;;5.83;4.07;;;3.20;99.90;;;;;;5044180;28;20225;-52
2023/03/12 09:05:32;;;;;;;4.10;3.70;;;3.20;99.90;;;;;;5039659;28;20650;-53
2023/03/12 09:07:58;;;;;;;6.37;3.70;;;3.30;99.90;;;;;;5057067;28;20195;-47
2023/03/12 09:10:26;;;;;;;3.97;3.30;;;3.40;99.90;;;;;;5053153;28;20563;-47
2023/03/12 09:12:54;;;;;;;8.10;3.57;;;3.50;99.90;;;;;;5049278;28;20405;-48
2023/03/12 09:15:21;;;;;;;7.40;3.83;;;3.50;99.90;;;;;;5051675;28;20230;-47
2023/03/12 09:17:49;;;;;;;6.30;3.80;;;3.50;99.90;;;;;;5041304;28;20600;-51
2023/03/12 09:20:16;;;;;;;6.17;3.57;;;3.50;99.90;;;;;;5055408;28;20196;-47
2023/03/12 09:22:44;;;;;;;4.80;3.43;;;3.50;99.90;;;;;;5041226;28;20213;-52
2023/03/12 09:25:12;;;;;;;6.00;2.93;;;3.60;99.90;;;;;;5052823;28;20227;-47
2023/03/12 09:27:40;;;;;;;3.43;3.13;;;3.60;99.90;;;;;;5054302;28;20199;-52
2023/03/12 09:30:11;;;;;;;5.23;2.80;;;3.60;99.90;;;;;;5054362;28;20194;-47
2023/03/12 09:32:38;;;;;;;5.33;2.83;;;3.60;99.90;;;;;;5034810;28;20281;-52
2023/03/12 09:35:06;;;;;;;6.23;3.80;;;3.60;99.90;;;;;;5057389;28;20218;-48
2023/03/12 09:37:33;;;;;;;6.87;3.10;;;3.60;99.90;;;;;;5041143;28;20345;-53
2023/03/12 09:40:00;;;;;;;4.93;3.00;;;3.70;99.90;;;;;;5053626;28;20198;-48
2023/03/12 09:42:35;;;;;;;5.37;3.10;;;3.70;99.90;;;;;;5043029;28;20300;-49
2023/03/12 09:45:05;;;;;;;4.37;3.13;;;3.80;99.90;;;;;;5050851;28;20212;-51
2023/03/12 09:47:37;;;;;;;4.97;2.77;;;3.90;99.90;;;;;;5048472;28;20563;-52
2023/03/12 09:50:17;;;;;;;7.80;3.07;;;4.10;99.90;;;;;;5049267;28;20876;-48
2023/03/12 09:52:51;;;;;;;3.90;3.10;;;4.10;99.90;;;;;;5037204;28;20210;-52
2023/03/12 09:55:21;;;;;;;5.17;3.13;;;4.10;99.90;;;;;;5050476;28;20223;-49
2023/03/12 09:58:13;;;;;;;6.93;3.10;;;4.20;99.90;;;;;;5053641;28;20245;-53
2023/03/12 10:00:40;;;;;;;3.57;2.70;;;4.20;99.90;;;;;;5048294;28;20203;-51
2023/03/12 10:03:23;;;;;;;6.90;2.80;;;4.30;99.90;;;;;;5039000;28;20209;-50
2023/03/12 10:06:13;;;;;;;4.00;3.27;;;4.30;99.90;;;;;;5055251;28;20300;-48
2023/03/12 10:08:54;;;;;;;4.10;2.87;;;4.50;99.90;;;;;;5034968;28;20203;-52
2023/03/12 10:11:36;;;;;;;5.30;2.83;;;4.50;99.90;;;;;;5053620;28;20202;-50
2023/03/12 10:14:17;;;;;;;7.30;3.10;;;4.60;99.90;;;;;;5047156;28;21041;-48
2023/03/12 10:16:58;;;;;;;6.57;2.87;;;4.60;99.90;;;;;;5058797;28;20203;-51
2023/03/12 10:19:48;;;;;;;5.70;2.53;;;4.70;99.90;;;;;;5040095;28;20561;-47
2023/03/12 10:22:28;;;;;;;3.53;2.47;;;4.90;99.90;;;;;;5039437;28;20203;-48
2023/03/12 10:25:06;;;;;;;3.13;2.83;;;4.90;99.90;;;;;;5044827;28;20297;-48
2023/03/12 10:27:35;;;;;;;3.47;2.63;;;4.80;99.90;;;;;;5052592;28;20538;-54
2023/03/12 10:30:12;;;;;;;5.70;2.93;;;4.90;99.90;;;;;;5051760;28;20195;-47
2023/03/12 10:32:43;;;;;;;2.97;2.60;;;4.90;99.90;;;;;;5047807;28;20209;-49
2023/03/12 10:35:16;;;;;;;5.00;2.77;;;5.00;99.90;;;;;;5051986;28;20237;-48
2023/03/12 10:37:46;;;;;;;5.93;2.50;;;5.00;99.90;;;;;;5038034;28;20219;-53
2023/03/12 10:40:15;;;;;;;7.63;2.50;;;5.10;99.90;;;;;;5055744;28;20298;-47
2023/03/12 10:42:42;;;;;;;4.97;2.70;;;5.10;99.90;;;;;;5047066;28;20198;-50
2023/03/12 10:45:21;;;;;;;5.07;2.43;;;5.10;99.90;;;;;;5040320;28;20234;-52
2023/03/12 10:47:55;;;;;;;5.70;2.77;;;5.10;99.90;;;;;;5047367;28;20209;-52
2023/03/12 10:50:26;;;;;;;2.43;2.20;;;5.00;99.90;;;;;;5036332;28;20203;-47
2023/03/12 10:53:13;;;;;;;3.83;2.20;;;5.00;99.90;;;;;;5032984;28;22341;-48
2023/03/12 10:55:40;;;;;;;5.30;2.30;;;5.00;99.90;;;;;;5054142;28;20410;-52
2023/03/12 10:58:07;;;;;;;3.87;2.17;;;5.00;99.90;;;;;;5048100;28;20219;-49
2023/03/12 11:00:33;;;;;;;2.70;2.17;;;4.90;99.90;;;;;;5047077;28;20202;-50
2023/03/12 11:03:03;;;;;;;3.67;2.17;;;4.90;99.90;;;;;;5048928;28;20295;-47
2023/03/12 11:05:34;;;;;;;3.70;2.40;;;4.80;99.90;;;;;;5041563;28;20701;-51
2023/03/12 11:08:02;;;;;;;3.50;2.53;;;4.80;99.90;;;;;;5051691;28;20179;-48
2023/03/12 11:10:42;;;;;;;3.43;2.07;;;4.80;99.90;;;;;;5042326;28;20206;-52
2023/03/12 11:13:30;;;;;;;6.57;2.43;;;4.90;99.90;;;;;;5048202;28;20195;-48
2023/03/12 11:15:59;;;;;;;4.30;2.23;;;4.90;99.90;;;;;;5039225;28;21430;-48
2023/03/12 11:18:37;;;;;;;6.00;2.50;;;4.90;99.90;;;;;;5049251;28;20945;-47
2023/03/12 11:21:17;;;;;;;4.30;2.30;;;5.00;99.90;;;;;;5047827;28;20507;-50
2023/03/12 11:23:54;;;;;;;3.13;2.83;;;5.00;99.90;;;;;;5046453;28;20242;-48
2023/03/12 11:26:50;;;;;;;3.37;2.67;;;5.00;99.90;;;;;;5050561;28;20325;-47
2023/03/12 11:29:25;;;;;;;3.20;2.90;;;5.00;99.90;;;;;;5047021;28;20211;-49
2023/03/12 11:32:03;;;;;;;5.03;3.03;;;4.90;99.90;;;;;;5046338;28;20301;-49
2023/03/12 11:34:32;;;;;;;5.33;2.93;;;4.90;99.90;;;;;;5048876;28;20219;-47
2023/03/12 11:37:07;;;;;;;7.07;3.60;;;4.80;99.90;;;;;;5042461;28;20211;-51
2023/03/12 11:39:49;;;;;;;3.60;2.50;;;4.80;99.90;;;;;;5047087;28;20197;-49
2023/03/12 11:42:27;;;;;;;4.43;2.93;;;4.80;99.90;;;;;;5037280;28;20902;-51
2023/03/12 11:45:22;;;;;;;2.70;2.50;;;4.90;99.90;;;;;;5045274;28;20217;-51
2023/03/12 11:47:59;;;;;;;6.43;2.43;;;5.00;99.90;;;;;;5039560;28;20220;-47
2023/03/12 11:50:35;;;;;;;5.20;2.73;;;4.90;99.90;;;;;;5051901;28;20944;-48
2023/03/12 11:53:23;;;;;;;3.43;2.63;;;5.00;99.90;;;;;;5040645;28;20564;-48
2023/03/12 11:56:21;;;;;;;3.80;2.33;;;4.90;99.90;;;;;;5036026;28;20214;-49
2023/03/12 11:59:01;;;;;;;4.40;2.47;;;4.90;99.90;;;;;;5048293;28;20222;-51
2023/03/12 12:01:39;;;;;;;6.40;2.60;;;4.90;99.90;;;;;;5047429;28;20191;-49
2023/03/12 12:04:26;;;;;;;4.50;2.80;;;4.90;99.90;;;;;;5039250;28;20258;-51
2023/03/12 12:07:04;;;;;;;4.83;2.50;;;4.90;99.90;;;;;;5040950;28;20218;-52
2023/03/12 12:09:39;;;;;;;3.57;2.33;;;4.90;99.90;;;;;;5047901;28;20191;-47
2023/03/12 12:12:24;;;;;;;7.00;2.67;;;5.00;99.90;;;;;;5041083;28;20202;-51
2023/03/12 12:15:03;;;;;;;4.33;2.53;;;5.00;99.90;;;;;;5047305;28;20253;-50
2023/03/12 12:17:42;;;;;;;4.90;2.47;;;5.00;99.90;;;;;;5048153;28;20222;-47
2023/03/12 12:20:20;;;;;;;3.20;2.13;;;5.00;99.90;;;;;;5046622;28;20198;-52
2023/03/12 12:22:59;;;;;;;6.03;2.50;;;4.90;99.90;;;;;;5037564;28;20206;-50
2023/03/12 12:25:57;;;;;;;6.17;3.13;;;4.90;99.90;;;;;;5044032;28;20520;-49
2023/03/12 12:28:37;;;;;;;2.83;2.50;;;4.90;99.90;;;;;;5036746;28;20573;-48
2023/03/12 12:31:14;;;;;;;4.43;2.13;;;4.90;99.90;;;;;;5050685;28;20195;-52
2023/03/12 12:34:01;;;;;;;2.73;2.53;;;4.80;99.90;;;;;;5048627;28;20230;-47
2023/03/12 12:36:31;;;;;;;13.20;4.67;;;4.80;99.90;;;;;;5048279;28;20210;-47
2023/03/12 12:39:03;;;;;;;3.83;2.33;;;4.80;99.90;;;;;;5038528;28;20230;-49
2023/03/12 12:41:38;;;;;;;3.17;1.90;;;4.80;99.90;;;;;;5059836;28;20694;-48
2023/03/12 12:44:11;;;;;;;2.40;1.70;;;4.70;99.90;;;;;;5037262;28;20318;-50
2023/03/12 12:46:44;;;;;;;4.93;1.73;;;4.60;99.90;;;;;;5053422;28;20210;-54
2023/03/12 12:49:14;;;;;;;6.10;2.23;;;4.50;99.90;;;;;;5044700;28;20199;-48
2023/03/12 12:51:46;;;;;;;2.10;1.70;;;4.60;99.90;;;;;;5052216;28;20210;-52
2023/03/12 12:54:23;;;;;;;2.30;1.70;;;4.50;99.90;;;;;;5043524;28;20229;-46
2023/03/12 12:56:57;;;;;;;2.57;1.60;;;4.50;99.90;;;;;;5050719;28;20203;-53
2023/03/12 12:59:34;;;;;;;3.20;1.97;;;4.50;99.90;;;;;;5052929;28;20214;-48
2023/03/12 13:02:03;;;;;;;1.83;1.73;;;4.60;99.90;;;;;;5034129;28;20199;-48
2023/03/12 13:04:34;;;;;;;2.70;1.73;;;4.60;99.90;;;;;;5046882;28;20223;-47
2023/03/12 13:07:23;;;;;;;3.93;1.70;;;4.50;99.90;;;;;;5053098;28;20195;-49
2023/03/12 13:09:52;;;;;;;4.43;2.00;;;4.40;99.90;;;;;;5039427;28;20207;-49